Time;durP1;ratioP1;P1;durP2;ratioP2;P2;SDS_P1;SDS_P2;PMS_P1;PMS_P2;Temp;Humidity;BMP_temperature;BMP_pressure;BME280_temperature;BME280_humidity;BME280_pressure;Samples;Min_cycle;Max_cycle;Signal;HPM_P1;HPM_P2
2022/12/03 00:00:06;;;;;;;;;61.00;45.75;;;;;4.90;80.66;101149.19;5095497;27;51637;-63
2022/12/03 00:02:31;;;;;;;;;55.25;43.25;;;;;4.89;79.29;101150.09;5097522;27;45441;-63
2022/12/03 00:04:57;;;;;;;;;45.50;38.00;;;;;4.91;80.50;101140.38;5094695;27;45383;-63
2022/12/03 00:07:22;;;;;;;;;46.50;34.00;;;;;4.89;79.79;101137.78;5098060;27;46463;-64
2022/12/03 00:09:47;;;;;;;;;55.50;40.50;;;;;4.76;80.03;101119.66;5095656;27;45445;-60
2022/12/03 00:12:13;;;;;;;;;51.25;41.50;;;;;4.91;79.88;101140.38;5096202;27;45388;-66
2022/12/03 00:14:38;;;;;;;;;8.00;0.75;;;;;4.92;79.32;101142.97;5078745;27;45551;-66
2022/12/03 00:17:03;;;;;;;;;56.00;42.25;;;;;4.88;78.93;101141.31;5096916;27;47155;-62
2022/12/03 00:19:29;;;;;;;;;48.75;39.25;;;;;4.80;79.55;101127.44;5094088;27;45252;-66
2022/12/03 00:21:54;;;;;;;;;49.50;42.00;;;;;4.86;79.67;101134.34;5096742;27;45414;-60
2022/12/03 00:24:19;;;;;;;;;37.50;23.00;;;;;4.84;79.24;101133.53;5078048;27;45562;-63
2022/12/03 00:26:45;;;;;;;;;55.25;39.00;;;;;4.86;79.72;101137.00;5104094;27;56867;-61
2022/12/03 00:29:10;;;;;;;;;47.00;39.75;;;;;4.86;79.53;101122.03;5106322;27;45453;-61
2022/12/03 00:31:35;;;;;;;;;53.00;44.00;;;;;4.91;79.59;101135.09;5097309;27;45379;-67
2022/12/03 00:34:01;;;;;;;;;52.75;41.00;;;;;4.90;79.31;101121.06;5095783;27;44915;-66
2022/12/03 00:36:26;;;;;;;;;61.75;44.75;;;;;4.97;79.49;101113.88;5096861;27;45411;-62
2022/12/03 00:38:52;;;;;;;;;44.50;36.25;;;;;4.93;79.23;101115.72;5095750;27;45241;-63
2022/12/03 00:41:17;;;;;;;;;36.25;36.25;;;;;4.92;78.74;101116.63;5095638;27;45299;-65
2022/12/03 00:43:43;;;;;;;;;43.00;35.75;;;;;4.97;78.87;101122.66;5061367;27;45450;-67
2022/12/03 00:46:09;;;;;;;;;49.00;38.75;;;;;4.92;79.20;101108.69;5095809;27;45421;-65
2022/12/03 00:48:34;;;;;;;;;58.50;36.00;;;;;4.90;79.01;101104.38;5096692;27;45473;-63
2022/12/03 00:51:00;;;;;;;;;51.50;41.50;;;;;4.94;78.34;101113.94;5079934;28;45225;-67
2022/12/03 00:53:25;;;;;;;;;51.00;39.25;;;;;4.91;78.95;101119.28;5096483;27;45536;-68
2022/12/03 00:55:50;;;;;;;;;50.00;42.25;;;;;4.91;79.19;101119.28;5098844;27;46305;-68
2022/12/03 00:58:16;;;;;;;;;44.00;34.25;;;;;4.96;78.98;101104.25;5089451;27;45794;-64
2022/12/03 01:00:42;;;;;;;;;39.00;34.50;;;;;4.97;78.64;101108.63;5118659;27;45532;-63
2022/12/03 01:03:08;;;;;;;;;50.25;42.75;;;;;5.03;79.09;101113.72;5095765;27;45866;-61
2022/12/03 01:05:34;;;;;;;;;52.25;34.00;;;;;5.01;78.05;101118.16;5106790;27;46416;-63
2022/12/03 01:08:00;;;;;;;;;62.00;46.00;;;;;4.95;78.65;101115.69;5117872;27;45675;-65
2022/12/03 01:10:25;;;;;;;;;50.00;43.50;;;;;5.00;78.99;101113.81;5098675;27;45523;-65
2022/12/03 01:12:51;;;;;;;;;53.50;42.00;;;;;4.84;77.70;101079.06;5099756;27;45361;-67
2022/12/03 01:15:16;;;;;;;;;40.50;31.50;;;;;4.94;78.64;101106.91;5099729;27;45366;-63
2022/12/03 01:17:42;;;;;;;;;48.00;41.50;;;;;5.00;78.49;101124.34;5071452;27;45406;-65
2022/12/03 01:20:08;;;;;;;;;50.75;42.00;;;;;4.88;78.51;101093.88;5062054;28;45601;-64
2022/12/03 01:22:34;;;;;;;;;49.50;42.50;;;;;5.01;78.47;101120.81;5100709;27;45230;-65
2022/12/03 01:24:59;;;;;;;;;53.75;32.75;;;;;4.92;77.38;101099.94;5101566;27;46126;-66
2022/12/03 01:27:25;;;;;;;;;47.75;42.25;;;;;4.95;78.30;101105.16;5099412;27;45420;-64
2022/12/03 01:29:51;;;;;;;;;50.00;39.00;;;;;4.93;77.73;101107.78;5100022;27;45168;-64
2022/12/03 01:32:18;;;;;;;;;57.50;45.00;;;;;4.97;78.64;101109.47;5100346;27;45299;-62
2022/12/03 01:34:45;;;;;;;;;48.75;42.25;;;;;4.99;77.95;101102.41;5101100;27;45597;-62
2022/12/03 01:37:10;;;;;;;;;45.25;35.00;;;;;4.93;78.26;101099.03;5080202;27;45436;-64
2022/12/03 01:39:36;;;;;;;;;51.50;41.25;;;;;4.91;77.77;101088.53;5081597;27;45358;-66
2022/12/03 01:42:02;;;;;;;;;51.25;40.50;;;;;4.94;77.65;101103.38;5100102;27;47051;-65
2022/12/03 01:44:31;;;;;;;;;44.00;34.75;;;;;5.04;78.00;101115.44;5099184;27;45551;-69
2022/12/03 01:47:00;;;;;;;;;59.25;45.50;;;;;5.02;77.77;101106.72;5098720;27;45221;-62
2022/12/03 01:49:47;;;;;;;;;50.00;39.75;;;;;5.06;77.33;101107.50;5099092;27;45500;-63
2022/12/03 01:52:16;;;;;;;;;46.00;40.75;;;;;5.07;78.53;101112.72;5099881;27;45299;-61
2022/12/03 01:54:48;;;;;;;;;47.25;41.25;;;;;5.04;78.37;101115.44;5079359;27;45510;-64
2022/12/03 01:57:39;;;;;;;;;50.25;43.75;;;;;5.03;78.01;101119.00;5099578;27;45335;-64
2022/12/03 02:00:06;;;;;;;;;56.00;44.50;;;;;4.98;77.22;101119.13;5097507;27;45316;-63
2022/12/03 02:02:32;;;;;;;;;45.25;38.75;;;;;4.96;77.74;101113.03;5100216;27;45165;-62
2022/12/03 02:04:58;;;;;;;;;43.50;36.50;;;;;4.96;78.04;101123.56;5100106;27;45433;-62
2022/12/03 02:07:30;;;;;;;;;53.75;45.50;;;;;4.88;77.78;101108.81;5065478;27;45524;-63
2022/12/03 02:09:58;;;;;;;;;40.50;35.75;;;;;4.98;77.64;101120.88;5079316;28;45440;-62
2022/12/03 02:12:31;;;;;;;;;48.25;42.00;;;;;4.99;77.79;101117.34;5093435;27;45573;-63
2022/12/03 02:14:57;;;;;;;;;50.75;43.50;;;;;4.99;77.18;101112.94;5091175;27;46207;-64
2022/12/03 02:17:22;;;;;;;;;42.25;39.75;;;;;4.92;77.31;101094.66;5093367;27;45407;-67
2022/12/03 02:19:49;;;;;;;;;49.00;43.25;;;;;5.03;77.33;101108.44;5090989;27;45380;-61
2022/12/03 02:22:29;;;;;;;;;54.25;42.50;;;;;5.07;76.46;101120.63;5099188;27;45395;-63
2022/12/03 02:25:00;;;;;;;;;54.75;43.00;;;;;5.08;76.76;101121.50;5098107;27;45685;-66
2022/12/03 02:27:27;;;;;;;;;54.00;41.00;;;;;5.04;77.02;101118.94;5098684;27;45318;-68
2022/12/03 02:29:52;;;;;;;;;48.50;42.00;;;;;5.01;76.60;101116.41;5105908;27;45447;-67
2022/12/03 02:32:22;;;;;;;;;61.50;44.75;;;;;5.02;76.88;101112.00;5079579;27;45524;-66
2022/12/03 02:34:48;;;;;;;;;39.50;29.75;;;;;4.94;77.25;101087.56;5050807;28;45499;-62
2022/12/03 02:37:28;;;;;;;;;58.50;43.00;;;;;5.10;76.75;101106.53;5078031;27;45415;-65
2022/12/03 02:39:58;;;;;;;;;46.25;39.75;;;;;5.11;76.45;101109.13;5070332;27;45508;-61
2022/12/03 02:42:36;;;;;;;;;55.50;43.75;;;;;5.07;76.05;101109.22;5098819;27;45339;-68
2022/12/03 02:45:07;;;;;;;;;64.00;46.00;;;;;5.06;76.17;101108.34;5078859;27;46826;-67
2022/12/03 02:47:38;;;;;;;;;54.25;42.25;;;;;5.02;76.59;101101.44;5098239;27;45260;-61
2022/12/03 02:50:04;;;;;;;;;58.25;44.50;;;;;4.99;76.18;101099.75;5095569;27;47021;-62
2022/12/03 02:52:30;;;;;;;;;49.25;41.50;;;;;5.03;77.03;101101.41;5068825;27;45456;-61
2022/12/03 02:54:55;;;;;;;;;53.50;42.00;;;;;5.04;76.19;101100.50;5096915;27;46060;-64
2022/12/03 02:57:21;;;;;;;;;48.50;40.25;;;;;5.01;75.37;101097.06;5083263;27;45338;-62
2022/12/03 02:59:46;;;;;;;;;50.50;38.75;;;;;4.97;76.15;101093.66;5079409;27;45401;-63
2022/12/03 03:02:13;;;;;;;;;44.75;41.50;;;;;4.90;77.01;101086.78;5097483;27;45659;-61
2022/12/03 03:04:40;;;;;;;;;51.75;38.50;;;;;4.89;76.63;101090.34;5095734;27;45364;-63
2022/12/03 03:07:06;;;;;;;;;52.25;41.75;;;;;4.77;77.70;101080.09;5067407;27;45862;-66
2022/12/03 03:09:33;;;;;;;;;45.50;40.25;;;;;4.70;76.95;101063.59;5078715;27;45366;-69
2022/12/03 03:11:58;;;;;;;;;39.75;39.75;;;;;4.88;77.36;101093.00;5098512;27;45531;-62
2022/12/03 03:14:24;;;;;;;;;49.75;41.00;;;;;4.88;77.35;101088.59;5079976;27;46090;-62
2022/12/03 03:16:54;;;;;;;;;46.25;39.75;;;;;4.87;77.29;101083.38;5078373;27;45459;-65
2022/12/03 03:19:27;;;;;;;;;48.50;39.00;;;;;4.88;77.86;101099.16;5097471;27;45305;-63
2022/12/03 03:21:53;;;;;;;;;54.00;41.75;;;;;4.91;76.70;101101.72;5097470;27;45547;-64
2022/12/03 03:24:21;;;;;;;;;40.50;33.25;;;;;4.89;76.57;101092.97;5095364;27;45434;-66
2022/12/03 03:26:47;;;;;;;;;42.00;37.00;;;;;4.89;76.58;101100.00;5081718;27;45536;-62
2022/12/03 03:29:13;;;;;;;;;48.00;40.25;;;;;4.89;76.58;101100.88;5077736;27;45284;-61
2022/12/03 03:31:41;;;;;;;;;61.25;46.75;;;;;4.87;76.31;101096.56;5082392;27;45548;-61
2022/12/03 03:34:07;;;;;;;;;44.75;38.75;;;;;4.84;76.80;101096.63;5087145;27;45648;-65
2022/12/03 03:36:33;;;;;;;;;48.25;33.50;;;;;4.83;77.12;101100.19;5097451;27;45342;-63
2022/12/03 03:39:13;;;;;;;;;56.25;42.50;;;;;4.72;77.23;101082.84;5074750;27;45409;-66
2022/12/03 03:41:41;;;;;;;;;44.75;36.25;;;;;4.81;76.04;101102.81;5061793;27;45584;-66
2022/12/03 03:44:08;;;;;;;;;60.00;42.50;;;;;4.79;76.42;101106.41;5077750;28;45363;-63
2022/12/03 03:46:34;;;;;;;;;50.00;32.75;;;;;4.75;76.49;101076.63;5064978;27;45248;-65
2022/12/03 03:49:02;;;;;;;;;47.75;38.00;;;;;4.72;76.95;101077.59;5097469;27;45269;-64
2022/12/03 03:51:27;;;;;;;;;46.50;42.25;;;;;4.77;76.40;101084.50;5091343;27;45427;-63
2022/12/03 03:53:53;;;;;;;;;56.50;40.00;;;;;4.82;76.69;101082.59;5093864;27;45496;-67
2022/12/03 03:56:20;;;;;;;;;54.25;44.75;;;;;4.72;76.56;101069.69;5099750;27;45402;-62
2022/12/03 03:58:45;;;;;;;;;49.00;41.75;;;;;4.82;76.37;101083.50;5097120;27;45395;-64
2022/12/03 04:01:13;;;;;;;;;54.75;39.75;;;;;4.82;75.72;101088.78;5096188;27;45432;-63
2022/12/03 04:03:38;;;;;;;;;48.50;38.75;;;;;4.81;76.71;101096.69;5077584;27;46867;-61
2022/12/03 04:06:04;;;;;;;;;60.50;41.50;;;;;4.86;76.25;101094.81;5080408;27;45331;-63
2022/12/03 04:08:30;;;;;;;;;45.25;40.75;;;;;4.81;75.50;101109.88;5088224;27;45216;-64
2022/12/03 04:13:39;;;;;;;;;45.25;37.25;;;;;4.77;75.13;101089.78;5095510;27;45332;-66
2022/12/03 04:16:05;;;;;;;;;44.50;37.50;;;;;4.74;75.22;101091.59;5096941;27;45281;-69
2022/12/03 04:18:42;;;;;;;;;57.00;41.75;;;;;4.74;75.83;101083.69;5090539;27;45565;-65
2022/12/03 04:23:57;;;;;;;;;44.00;37.75;;;;;4.78;75.97;101078.31;5099548;27;47010;-66
2022/12/03 04:29:08;;;;;;;;;57.00;41.50;;;;;4.70;75.02;101074.13;5084218;27;45382;-63
2022/12/03 04:37:02;;;;;;;;;51.25;35.00;;;;;4.78;75.53;101087.09;5099446;27;45322;-67
2022/12/03 04:39:27;;;;;;;;;43.75;36.00;;;;;4.79;75.70;101078.28;5081213;27;45347;-66
2022/12/03 04:41:53;;;;;;;;;44.75;36.25;;;;;4.77;75.41;101068.69;5098649;27;45599;-65
2022/12/03 04:44:37;;;;;;;;;48.00;37.50;;;;;4.82;75.18;101074.69;5099823;27;45211;-62
2022/12/03 04:47:12;;;;;;;;;49.50;40.25;;;;;4.80;74.53;101065.97;5080489;27;45443;-63
2022/12/03 04:49:44;;;;;;;;;57.00;39.50;;;;;4.79;75.25;101059.84;5097970;27;45357;-65
2022/12/03 04:52:11;;;;;;;;;45.25;39.75;;;;;4.87;75.63;101071.06;5099040;27;45489;-66
2022/12/03 04:54:37;;;;;;;;;49.75;42.00;;;;;4.87;74.62;101064.94;5097939;27;45390;-62
2022/12/03 04:57:03;;;;;;;;;39.75;38.25;;;;;4.88;74.41;101069.28;5099777;27;45334;-65
2022/12/03 04:59:29;;;;;;;;;46.75;39.00;;;;;4.87;74.48;101071.06;5098607;27;45466;-65
2022/12/03 05:01:54;;;;;;;;;45.75;35.75;;;;;4.88;74.95;101066.66;5090651;27;46034;-66
2022/12/03 05:04:20;;;;;;;;;48.00;37.00;;;;;4.93;75.49;101070.03;5081757;27;47918;-62
2022/12/03 05:06:46;;;;;;;;;40.50;27.75;;;;;4.85;73.87;101057.06;5098509;27;45291;-69
2022/12/03 05:09:12;;;;;;;;;44.50;35.00;;;;;4.90;74.70;101059.56;5105851;27;45288;-64
2022/12/03 05:11:38;;;;;;;;;40.00;33.00;;;;;4.79;73.73;101056.34;5100198;27;45485;-66
2022/12/03 05:14:03;;;;;;;;;51.00;40.75;;;;;4.79;74.80;101056.34;5100009;27;46042;-65
2022/12/03 05:16:29;;;;;;;;;35.25;30.25;;;;;4.79;74.75;101066.88;5088679;27;45424;-65
2022/12/03 05:18:54;;;;;;;;;39.50;36.50;;;;;4.74;74.19;101057.34;5097025;27;45409;-67
2022/12/03 05:21:20;;;;;;;;;52.75;38.50;;;;;4.78;74.04;101060.75;5100070;27;45325;-65
2022/12/03 05:23:45;;;;;;;;;43.25;34.00;;;;;4.76;74.34;101061.69;5098174;27;46085;-67
2022/12/03 05:26:11;;;;;;;;;47.00;35.75;;;;;4.74;74.49;101059.97;5098817;27;45368;-65
2022/12/03 05:28:36;;;;;;;;;37.00;34.25;;;;;4.84;74.98;101054.47;5081415;27;45263;-67
2022/12/03 05:31:01;;;;;;;;;37.50;33.50;;;;;4.74;74.17;101056.47;5077011;27;45650;-66
2022/12/03 05:33:27;;;;;;;;;40.75;35.00;;;;;4.89;74.61;101078.94;5085655;27;45824;-66
2022/12/03 05:35:52;;;;;;;;;40.00;35.00;;;;;4.88;74.54;101070.16;5098343;27;45388;-62
2022/12/03 05:38:18;;;;;;;;;56.00;38.00;;;;;4.80;74.14;101058.06;5107127;27;45372;-65
2022/12/03 05:40:43;;;;;;;;;50.75;43.75;;;;;4.83;73.89;101068.56;5120037;27;45301;-63
2022/12/03 05:43:09;;;;;;;;;47.25;41.25;;;;;4.76;74.34;101064.31;5110703;27;45345;-61
2022/12/03 05:45:37;;;;;;;;;58.00;43.75;;;;;4.76;73.91;101073.09;5097916;27;45318;-62
2022/12/03 05:48:05;;;;;;;;;60.25;45.50;;;;;4.77;73.70;101066.91;5099177;27;45416;-62
2022/12/03 05:50:32;;;;;;;;;30.25;26.00;;;;;4.63;73.74;101040.91;5089551;27;45558;-63
2022/12/03 05:52:58;;;;;;;;;36.00;34.00;;;;;4.78;74.39;101059.88;5078760;27;45713;-63
2022/12/03 05:55:24;;;;;;;;;41.50;34.50;;;;;4.76;73.40;101053.78;5094638;27;45448;-60
2022/12/03 05:57:49;;;;;;;;;40.75;36.75;;;;;4.82;74.00;101059.78;5082129;27;45594;-63
2022/12/03 06:00:21;;;;;;;;;49.75;37.50;;;;;4.87;73.58;101059.66;5102994;27;45410;-62
2022/12/03 06:02:46;;;;;;;;;29.50;25.75;;;;;4.88;73.60;101064.03;5079965;27;46332;-60
2022/12/03 06:05:13;;;;;;;;;43.75;33.75;;;;;4.81;73.03;101060.66;5105471;27;46943;-63
2022/12/03 06:07:39;;;;;;;;;41.75;34.50;;;;;4.76;73.29;101062.56;5104588;27;45516;-60
2022/12/03 06:10:06;;;;;;;;;38.50;31.50;;;;;4.77;73.98;101052.88;5079713;27;45456;-60
2022/12/03 06:12:32;;;;;;;;;39.00;35.00;;;;;4.81;73.51;101062.44;5098153;27;46558;-65
2022/12/03 06:14:58;;;;;;;;;50.25;33.50;;;;;4.76;73.09;101054.66;5080621;27;45550;-62
2022/12/03 06:17:26;;;;;;;;;34.00;29.00;;;;;4.83;74.29;101064.16;5099206;27;45339;-60
2022/12/03 06:19:52;;;;;;;;;31.25;27.25;;;;;4.81;73.75;101049.25;5099074;27;45303;-62
2022/12/03 06:22:18;;;;;;;;;21.50;14.00;;;;;4.84;74.48;101049.22;5096464;27;46209;-61
2022/12/03 06:24:44;;;;;;;;;36.75;32.50;;;;;4.84;74.24;101063.25;5098567;27;45355;-62
2022/12/03 06:27:10;;;;;;;;;47.25;39.75;;;;;4.73;73.41;101042.44;5093606;27;45426;-65
2022/12/03 06:29:35;;;;;;;;;39.25;33.00;;;;;4.87;74.27;101051.75;5081183;27;45322;-64
2022/12/03 06:32:01;;;;;;;;;40.75;37.00;;;;;4.85;73.50;101053.56;5079240;28;46005;-61
2022/12/03 06:34:27;;;;;;;;;36.00;28.00;;;;;4.83;73.45;101047.47;5078708;28;45367;-62
2022/12/03 06:36:52;;;;;;;;;37.75;26.50;;;;;4.85;73.32;101054.44;5080155;27;45915;-66
2022/12/03 06:39:18;;;;;;;;;33.25;29.25;;;;;4.79;73.55;101051.06;5097365;27;45607;-65
2022/12/03 06:41:43;;;;;;;;;41.00;32.00;;;;;4.80;73.26;101048.38;5079095;27;46576;-64
2022/12/03 06:44:09;;;;;;;;;36.25;30.25;;;;;4.83;73.32;101042.22;5096166;27;45581;-64
2022/12/03 06:46:34;;;;;;;;;33.00;25.75;;;;;4.81;73.17;101043.97;5097274;27;45396;-66
2022/12/03 06:48:59;;;;;;;;;34.75;28.50;;;;;4.82;73.57;101048.34;5095841;27;45487;-65
2022/12/03 06:51:25;;;;;;;;;40.00;37.50;;;;;4.82;73.68;101050.97;5097920;27;45496;-66
2022/12/03 06:53:50;;;;;;;;;43.75;31.50;;;;;4.73;72.92;101041.56;5097848;27;45511;-67
2022/12/03 06:56:16;;;;;;;;;34.00;31.25;;;;;4.71;72.61;101036.34;5096466;27;45761;-64
2022/12/03 06:58:41;;;;;;;;;37.00;34.75;;;;;4.78;73.73;101049.34;5098329;27;45340;-66
2022/12/03 07:01:10;;;;;;;;;38.00;31.75;;;;;4.80;73.19;101060.69;5091413;27;46146;-66
2022/12/03 07:03:35;;;;;;;;;44.75;33.25;;;;;4.80;73.81;101053.66;5102718;27;45422;-64
2022/12/03 07:06:00;;;;;;;;;29.75;21.25;;;;;4.69;73.65;101032.00;5106590;27;45264;-64
2022/12/03 07:08:26;;;;;;;;;44.00;35.25;;;;;4.86;73.53;101052.66;5098710;27;45231;-63
2022/12/03 07:10:52;;;;;;;;;39.75;29.75;;;;;4.86;72.67;101063.19;5119435;27;45420;-62
2022/12/03 07:13:17;;;;;;;;;38.50;31.50;;;;;4.87;73.11;101059.66;5101281;27;46343;-62
2022/12/03 07:15:43;;;;;;;;;34.25;28.75;;;;;4.78;73.04;101039.66;5115772;27;45536;-66
2022/12/03 07:18:08;;;;;;;;;46.50;34.50;;;;;4.80;72.83;101047.53;5119392;27;45522;-67
2022/12/03 07:20:34;;;;;;;;;39.50;31.75;;;;;4.85;72.65;101066.75;5107862;27;45381;-66
2022/12/03 07:22:59;;;;;;;;;40.25;32.25;;;;;4.88;72.49;101064.03;5103187;27;45465;-63
2022/12/03 07:25:25;;;;;;;;;26.75;21.25;;;;;4.81;73.40;101059.78;5093611;27;45493;-66
2022/12/03 07:27:50;;;;;;;;;40.75;30.75;;;;;4.83;72.10;101050.97;5097880;27;45582;-65
2022/12/03 07:30:16;;;;;;;;;36.00;31.00;;;;;4.87;72.31;101044.72;5091147;27;45946;-65
2022/12/03 07:32:41;;;;;;;;;35.00;25.75;;;;;4.96;72.60;101069.97;5062736;27;46485;-63
2022/12/03 07:35:07;;;;;;;;;31.75;24.25;;;;;4.83;72.23;101043.06;5104158;27;45384;-62
2022/12/03 07:37:33;;;;;;;;;34.00;28.25;;;;;4.83;72.18;101052.75;5118467;27;45459;-61
2022/12/03 07:39:58;;;;;;;;;39.00;30.00;;;;;4.93;72.76;101063.00;5111973;27;45273;-68
2022/12/03 07:42:27;;;;;;;;;37.75;33.75;;;;;5.01;71.68;101073.34;5098268;27;45273;-64
2022/12/03 07:44:52;;;;;;;;;36.50;28.50;;;;;4.98;71.54;101069.03;5095813;27;45189;-64
2022/12/03 07:47:18;;;;;;;;;37.50;31.00;;;;;4.98;72.34;101065.53;5078269;27;45291;-61
2022/12/03 07:49:44;;;;;;;;;34.00;28.00;;;;;4.97;71.71;101069.06;5078051;27;45469;-65
2022/12/03 07:52:09;;;;;;;;;36.25;30.50;;;;;5.03;71.96;101079.44;5097544;27;45526;-65
2022/12/03 07:54:34;;;;;;;;;37.50;29.00;;;;;4.93;71.27;101051.59;5108049;27;45866;-64
2022/12/03 07:57:00;;;;;;;;;33.00;27.50;;;;;5.03;72.27;101067.13;5099655;27;45523;-63
2022/12/03 07:59:26;;;;;;;;;38.25;32.50;;;;;5.12;71.99;101071.31;5086388;27;46452;-63
2022/12/03 08:01:51;;;;;;;;;25.50;25.50;;;;;5.17;72.19;101079.97;5091867;27;45572;-61
2022/12/03 08:04:17;;;;;;;;;24.00;21.75;;;;;5.16;71.41;101077.38;5083834;27;45671;-61
2022/12/03 08:06:44;;;;;;;;;35.00;32.75;;;;;5.09;70.55;101071.41;5096566;27;45495;-61
2022/12/03 08:09:10;;;;;;;;;39.25;26.25;;;;;5.16;71.24;101077.38;5089611;27;46200;-61
2022/12/03 08:11:35;;;;;;;;;34.50;24.75;;;;;5.20;69.74;101068.47;5095813;27;45401;-63
2022/12/03 08:14:16;;;;;;;;;42.25;30.25;;;;;5.14;70.58;101058.09;5091227;27;45408;-62
2022/12/03 08:16:44;;;;;;;;;35.50;24.75;;;;;5.21;70.75;101071.09;5087513;27;45630;-59
2022/12/03 08:19:15;;;;;;;;;32.50;25.50;;;;;5.28;69.67;101072.63;5090719;27;46416;-59
2022/12/03 08:21:41;;;;;;;;;30.25;25.00;;;;;5.25;68.51;101059.53;5094318;27;45547;-60
2022/12/03 08:24:16;;;;;;;;;25.00;19.50;;;;;5.27;70.03;101063.00;5076399;27;45661;-59
2022/12/03 08:26:44;;;;;;;;;27.75;24.00;;;;;5.22;69.01;101057.00;5086424;27;45429;-59
2022/12/03 08:29:12;;;;;;;;;24.50;21.00;;;;;5.24;69.09;101047.25;5113338;27;46036;-60
2022/12/03 08:31:38;;;;;;;;;21.50;20.00;;;;;5.29;68.78;101063.81;5102503;27;45282;-58
2022/12/03 08:34:15;;;;;;;;;26.75;25.00;;;;;5.29;68.06;101062.94;5089038;27;45446;-59
2022/12/03 08:36:41;;;;;;;;;23.50;15.75;;;;;5.15;68.55;101044.84;5075908;28;45427;-60
2022/12/03 08:39:32;;;;;;;;;30.50;26.25;;;;;5.19;69.16;101059.69;5093939;27;46635;-60
2022/12/03 08:44:54;;;;;;;;;37.25;29.25;;;;;5.30;69.77;101057.63;5105090;27;45356;-61
2022/12/03 08:47:21;;;;;;;;;27.25;20.50;;;;;5.32;69.05;101052.31;5076976;27;45421;-59
2022/12/03 08:49:54;;;;;;;;;27.50;25.00;;;;;5.28;68.18;101051.53;5090339;27;45468;-59
2022/12/03 08:52:21;;;;;;;;;21.50;19.00;;;;;5.33;68.42;101054.91;5074612;27;45541;-61
2022/12/03 08:54:52;;;;;;;;;23.25;22.25;;;;;5.26;67.82;101047.22;5096393;27;45366;-61
2022/12/03 08:57:29;;;;;;;;;29.00;26.75;;;;;5.33;68.45;101064.59;5097397;27;45436;-61
2022/12/03 08:59:59;;;;;;;;;25.00;25.00;;;;;5.27;67.69;101055.09;5091479;27;45291;-62
2022/12/03 09:02:34;;;;;;;;;34.00;25.00;;;;;5.32;67.50;101066.34;5060994;28;45368;-64
2022/12/03 09:05:13;;;;;;;;;20.25;16.50;;;;;5.39;69.21;101055.66;5100545;27;45257;-63
2022/12/03 09:07:38;;;;;;;;;24.00;18.75;;;;;5.35;67.85;101061.94;5097667;27;45392;-63
2022/12/03 09:10:04;;;;;;;;;17.50;15.75;;;;;5.22;68.14;101041.16;5099594;27;46622;-62
2022/12/03 09:12:29;;;;;;;;;20.50;19.75;;;;;5.32;68.06;101062.84;5101516;27;45416;-63
2022/12/03 09:14:55;;;;;;;;;26.00;24.75;;;;;5.29;68.00;101053.25;5103868;27;45322;-62
2022/12/03 09:17:20;;;;;;;;;26.75;21.00;;;;;5.40;68.17;101060.88;5100868;27;45437;-61
2022/12/03 09:19:45;;;;;;;;;21.50;19.00;;;;;5.31;67.87;101056.72;5095301;27;47237;-62
2022/12/03 09:22:12;;;;;;;;;28.00;23.25;;;;;5.40;68.54;101065.31;5097533;27;45659;-62
2022/12/03 09:24:37;;;;;;;;;17.00;17.00;;;;;5.34;68.57;101055.78;5098436;27;45436;-60
2022/12/03 09:27:03;;;;;;;;;23.25;23.25;;;;;5.36;67.74;101053.13;5100282;27;45607;-60
2022/12/03 09:29:28;;;;;;;;;24.25;18.50;;;;;5.44;67.39;101059.03;5099605;27;46029;-62
2022/12/03 09:31:53;;;;;;;;;22.00;21.25;;;;;5.38;68.03;101059.22;5080908;27;45321;-63
2022/12/03 09:34:19;;;;;;;;;27.75;22.25;;;;;5.41;66.98;101065.25;5099675;27;45327;-61
2022/12/03 09:36:44;;;;;;;;;33.50;22.25;;;;;5.45;67.44;101063.41;5080748;27;45445;-62
2022/12/03 09:39:09;;;;;;;;;25.50;21.00;;;;;5.47;67.20;101069.47;5098785;27;46127;-62
2022/12/03 09:41:35;;;;;;;;;22.75;21.75;;;;;5.47;66.85;101058.94;5080884;27;45227;-60
2022/12/03 09:44:01;;;;;;;;;23.25;20.50;;;;;5.50;67.21;101064.16;5099554;27;45296;-63
2022/12/03 09:46:28;;;;;;;;;24.00;22.75;;;;;5.50;66.72;101056.25;5099504;27;45611;-64
2022/12/03 09:48:54;;;;;;;;;23.50;20.00;;;;;5.51;67.34;101050.91;5080497;27;47566;-63
2022/12/03 09:51:20;;;;;;;;;16.50;14.75;;;;;5.49;66.97;101060.66;5097525;27;45531;-63
2022/12/03 09:53:46;;;;;;;;;20.25;18.25;;;;;5.58;67.72;101060.38;5080665;27;45381;-62
2022/12/03 09:56:20;;;;;;;;;28.00;25.25;;;;;5.53;67.50;101061.41;5099439;27;45597;-62
2022/12/03 09:58:46;;;;;;;;;32.75;26.75;;;;;5.52;67.08;101055.28;5098906;27;45825;-64
2022/12/03 10:01:14;;;;;;;;;27.50;16.00;;;;;5.58;67.51;101059.50;5098920;27;45390;-63
2022/12/03 10:03:45;;;;;;;;;18.75;18.00;;;;;5.53;67.51;101064.06;5099097;27;45217;-62
2022/12/03 10:06:17;;;;;;;;;29.50;22.50;;;;;5.57;66.98;101047.22;5098910;27;45463;-63
2022/12/03 10:08:47;;;;;;;;;24.25;19.00;;;;;5.66;67.49;101052.25;5098501;27;45448;-63
2022/12/03 10:11:12;;;;;;;;;27.25;19.50;;;;;5.68;67.21;101039.88;5097949;27;45408;-64
2022/12/03 10:13:38;;;;;;;;;33.50;24.75;;;;;5.76;67.33;101045.81;5079316;27;45573;-63
2022/12/03 10:16:07;;;;;;;;;20.25;20.25;;;;;5.76;67.17;101037.03;5089168;27;45235;-62
2022/12/03 10:18:34;;;;;;;;;25.75;22.75;;;;;5.73;67.15;101026.53;5060827;28;45365;-63
2022/12/03 10:21:00;;;;;;;;;37.50;24.75;;;;;5.70;67.59;101039.81;5089936;27;45509;-64
2022/12/03 10:23:28;;;;;;;;;28.50;25.25;;;;;5.79;67.46;101040.44;5078303;27;45453;-69
2022/12/03 10:26:01;;;;;;;;;32.00;22.50;;;;;5.83;66.92;101034.16;5091483;27;45503;-66
2022/12/03 10:28:31;;;;;;;;;30.50;25.25;;;;;5.87;67.15;101027.88;5090979;27;45543;-61
2022/12/03 10:30:58;;;;;;;;;26.50;23.75;;;;;5.97;66.99;101024.97;5094128;27;45367;-66
2022/12/03 10:33:29;;;;;;;;;24.50;19.50;;;;;6.01;66.91;101018.72;5098342;27;46001;-67
2022/12/03 10:35:54;;;;;;;;;26.75;23.00;;;;;6.01;67.07;101016.94;5098023;27;45247;-65
2022/12/03 10:38:21;;;;;;;;;5.00;1.25;;;;;6.03;66.31;101019.53;5098420;27;45358;-67
2022/12/03 10:40:47;;;;;;;;;12.75;12.75;;;;;6.00;66.52;101022.28;5099656;27;45254;-64
2022/12/03 10:43:24;;;;;;;;;20.75;18.75;;;;;5.99;66.40;101024.06;5083680;27;45294;-67
2022/12/03 10:45:49;;;;;;;;;23.25;18.50;;;;;5.98;65.90;101024.94;5091234;27;45511;-63
2022/12/03 10:48:24;;;;;;;;;21.75;19.25;;;;;5.95;66.59;101010.97;5079325;27;46189;-62
2022/12/03 10:51:15;;;;;;;;;19.75;13.00;;;;;5.97;67.08;101019.69;5097089;27;45953;-63
2022/12/03 10:53:41;;;;;;;;;20.50;20.50;;;;;6.00;66.73;101020.50;5088848;27;45682;-62
2022/12/03 10:56:10;;;;;;;;;25.50;23.25;;;;;5.95;66.45;100997.78;5098549;27;45162;-64
2022/12/03 10:58:38;;;;;;;;;28.00;25.25;;;;;6.06;66.58;101011.50;5094404;27;46081;-60
2022/12/03 11:01:24;;;;;;;;;31.25;25.25;;;;;6.01;66.54;100997.59;5077515;27;45368;-61
2022/12/03 11:03:50;;;;;;;;;26.50;20.25;;;;;6.09;66.29;101004.34;5096851;27;45365;-63
2022/12/03 11:06:21;;;;;;;;;29.75;29.00;;;;;6.07;67.05;101007.97;5079528;27;45325;-62
2022/12/03 11:08:49;;;;;;;;;25.75;24.25;;;;;6.08;66.23;101004.41;5097081;27;45451;-66
2022/12/03 11:11:18;;;;;;;;;28.25;25.75;;;;;5.98;65.35;100993.25;5095896;27;45897;-63
2022/12/03 11:13:44;;;;;;;;;20.25;18.75;;;;;6.02;66.17;100996.69;5096952;27;45496;-62
2022/12/03 11:16:10;;;;;;;;;22.50;18.75;;;;;6.00;66.21;100993.22;5095862;27;45553;-66
2022/12/03 11:18:36;;;;;;;;;25.50;22.00;;;;;5.99;65.72;100996.75;5099476;27;46400;-63
2022/12/03 11:21:06;;;;;;;;;29.75;21.75;;;;;5.98;65.29;100992.38;5095359;27;46809;-65
2022/12/03 11:23:43;;;;;;;;;25.50;21.25;;;;;5.99;66.21;100994.13;5090585;27;45421;-65
2022/12/03 11:26:52;;;;;;;;;21.50;18.25;;;;;5.95;66.41;100988.06;5096888;27;45603;-62
2022/12/03 11:29:47;;;;;;;;;35.50;26.50;;;;;5.95;66.77;100990.72;5050524;27;45373;-61
2022/12/03 11:32:38;;;;;;;;;25.00;23.25;;;;;6.00;66.01;100987.94;5092777;27;45502;-62
2022/12/03 11:35:13;;;;;;;;;25.50;25.50;;;;;6.06;66.30;100982.47;5097752;27;45373;-62